Time;durP1;ratioP1;P1;durP2;ratioP2;P2;SDS_P1;SDS_P2;PMS_P1;PMS_P2;Temp;Humidity;BMP_temperature;BMP_pressure;BME280_temperature;BME280_humidity;BME280_pressure;Samples;Min_cycle;Max_cycle;Signal;HPM_P1;HPM_P2
2022/05/04 00:01:47;;;;;;;10.75;6.78;;;;;;;11.48;63.05;99078.48;1757492;80;21237;-74
2022/05/04 00:04:13;;;;;;;9.55;6.33;;;;;;;11.48;63.16;99077.10;1757980;81;20997;-71
2022/05/04 00:06:40;;;;;;;10.80;6.17;;;;;;;11.46;63.18;99082.95;1744645;81;21024;-73
2022/05/04 00:09:07;;;;;;;12.80;6.85;;;;;;;11.42;63.24;99093.04;1757646;80;21007;-72
2022/05/04 00:11:33;;;;;;;9.75;6.42;;;;;;;11.31;63.52;99092.05;1757979;81;21028;-75
2022/05/04 00:14:01;;;;;;;11.97;6.17;;;;;;;11.23;63.84;99095.69;1758642;81;21148;-72
2022/05/04 00:16:28;;;;;;;11.30;6.37;;;;;;;11.15;64.21;99085.52;1768547;80;20981;-72
2022/05/04 00:18:55;;;;;;;9.83;5.92;;;;;;;11.12;64.51;99088.39;1757778;81;21461;-74
2022/05/04 00:21:21;;;;;;;10.98;5.87;;;;;;;11.14;64.45;99090.22;1759340;81;20985;-73
2022/05/04 00:23:48;;;;;;;9.15;6.40;;;;;;;11.15;64.48;99093.23;1757259;80;21292;-73
2022/05/04 00:26:17;;;;;;;11.43;6.15;;;;;;;11.14;64.76;99088.84;1757419;81;21935;-73
2022/05/04 00:28:44;;;;;;;8.15;5.95;;;;;;;11.12;64.84;99092.53;1755545;81;20970;-72
2022/05/04 00:31:10;;;;;;;13.22;6.47;;;;;;;11.13;64.76;99093.31;1758288;81;21051;-73
2022/05/04 00:33:38;;;;;;;10.03;5.90;;;;;;;11.14;64.50;99099.88;1759197;81;21106;-73
2022/05/04 00:36:07;;;;;;;10.18;5.70;;;;;;;11.14;64.46;99108.14;1758081;80;21016;-73
2022/05/04 00:38:34;;;;;;;9.75;5.78;;;;;;;11.14;64.34;99106.77;1757497;80;21860;-73
2022/05/04 00:41:00;;;;;;;8.08;5.97;;;;;;;11.13;64.22;99107.92;1759116;80;21000;-72
2022/05/04 00:43:27;;;;;;;9.93;6.05;;;;;;;11.14;64.12;99110.91;1757997;81;21485;-71
2022/05/04 00:45:53;;;;;;;11.73;5.80;;;;;;;11.13;63.99;99107.92;1757781;81;21055;-72
2022/05/04 00:48:20;;;;;;;11.88;5.35;;;;;;;11.13;63.74;99104.34;1758826;80;21086;-72
2022/05/04 00:50:48;;;;;;;12.23;5.33;;;;;;;11.11;63.58;99107.44;1757915;80;21210;-74
2022/05/04 00:53:16;;;;;;;8.40;5.95;;;;;;;11.07;63.53;99108.67;1762933;81;20977;-72
2022/05/04 00:55:43;;;;;;;8.43;4.87;;;;;;;11.06;63.49;99113.14;1766375;81;20995;-72
2022/05/04 01:00:55;;;;;;;8.18;4.80;;;;;;;10.91;62.80;99104.31;1755739;81;21047;-73
2022/05/04 01:03:22;;;;;;;8.55;5.15;;;;;;;10.74;62.93;99111.28;1759049;81;21437;-71
2022/05/04 01:05:48;;;;;;;7.92;4.85;;;;;;;10.65;63.05;99109.37;1742890;81;20993;-75
2022/05/04 01:08:15;;;;;;;9.28;5.28;;;;;;;10.59;63.19;99118.38;1759321;81;21005;-72
2022/05/04 01:10:42;;;;;;;13.40;4.90;;;;;;;10.62;63.51;99121.06;1757042;81;21053;-72
2022/05/04 01:13:09;;;;;;;14.33;4.87;;;;;;;10.58;63.06;99122.84;1757867;81;21016;-72
2022/05/04 01:15:36;;;;;;;8.85;4.72;;;;;;;10.57;63.23;99119.30;1754111;80;21144;-74
2022/05/04 01:18:02;;;;;;;8.75;4.62;;;;;;;10.60;63.53;99126.09;1756999;80;21006;-72
2022/05/04 01:20:29;;;;;;;10.13;4.72;;;;;;;10.64;63.73;99122.92;1752356;81;21001;-73
2022/05/04 01:22:55;;;;;;;8.55;5.42;;;;;;;10.63;62.94;99121.29;1752488;81;21007;-73
2022/05/04 01:25:23;;;;;;;8.90;5.65;;;;;;;10.61;62.68;99130.45;1748294;81;21082;-73
2022/05/04 01:27:50;;;;;;;11.10;5.80;;;;;;;10.57;62.86;99133.64;1752506;81;21240;-72
2022/05/04 01:30:17;;;;;;;11.45;4.95;;;;;;;10.55;62.58;99131.78;1752250;80;21055;-71
2022/05/04 01:32:44;;;;;;;11.78;5.53;;;;;;;10.50;62.83;99130.58;1748764;81;21059;-72
2022/05/04 01:35:14;;;;;;;9.28;5.05;;;;;;;10.47;62.88;99128.72;1752265;81;21022;-73
2022/05/04 04:26:45;;;;;;;8.78;4.85;;;;;;;10.79;59.39;99290.23;1687392;77;21099;-74
2022/05/04 04:29:14;;;;;;;10.18;5.30;;;;;;;10.76;59.38;99282.06;1684855;85;21123;-74
2022/05/04 04:31:40;;;;;;;19.50;5.17;;;;;;;10.76;59.27;99288.12;1684972;85;21055;-73
2022/05/04 04:34:07;;;;;;;13.40;5.17;;;;;;;10.78;59.17;99290.78;1685452;85;21119;-73
2022/05/04 04:36:34;;;;;;;9.65;5.08;;;;;;;10.78;59.08;99294.92;1684759;85;21548;-74
2022/05/04 04:39:01;;;;;;;9.38;4.97;;;;;;;10.82;59.31;99297.28;1660983;85;21092;-73
2022/05/04 04:41:27;;;;;;;11.28;4.55;;;;;;;10.85;59.00;99289.50;1684928;85;21037;-73
2022/05/04 04:43:53;;;;;;;9.58;5.25;;;;;;;10.89;59.21;99294.58;1684862;83;21027;-74
2022/05/04 04:46:20;;;;;;;14.15;5.03;;;;;;;10.93;58.92;99296.38;1698284;83;21207;-73
2022/05/04 04:48:47;;;;;;;14.68;5.22;;;;;;;11.00;59.20;99302.77;1703546;83;21057;-72
2022/05/04 04:51:14;;;;;;;7.53;4.55;;;;;;;11.07;59.23;99303.64;1702419;84;21552;-74
2022/05/04 04:53:43;;;;;;;7.22;4.70;;;;;;;11.16;58.70;99302.20;1702201;84;21058;-73
2022/05/04 04:56:09;;;;;;;10.95;4.87;;;;;;;11.26;58.86;99305.98;1689986;84;21092;-74
2022/05/04 04:58:38;;;;;;;16.60;5.33;;;;;;;11.36;58.06;99308.16;1685195;82;21119;-74
2022/05/04 05:01:05;;;;;;;10.03;5.00;;;;;;;11.41;58.00;99307.38;1701316;83;21139;-74
2022/05/04 05:03:32;;;;;;;10.98;4.83;;;;;;;11.51;57.91;99300.71;1713846;83;21007;-72
2022/05/04 05:05:58;;;;;;;16.25;4.58;;;;;;;11.62;57.92;99305.83;1715888;82;21085;-75
2022/05/04 05:08:26;;;;;;;7.83;4.55;;;;;;;11.68;56.44;99308.66;1713684;82;21602;-73
2022/05/04 05:10:53;;;;;;;9.30;4.25;;;;;;;11.71;56.42;99315.45;1710980;82;21117;-74
2022/05/04 05:13:20;;;;;;;13.83;5.17;;;;;;;11.78;56.70;99311.61;1714048;82;21083;-75
2022/05/04 05:16:06;;;;;;;7.15;3.80;;;;;;;11.86;56.59;99314.88;1714366;83;21074;-73
2022/05/04 05:18:36;;;;;;;10.75;3.92;;;;;;;11.90;56.02;99313.65;1713685;82;21463;-75
2022/05/04 05:21:02;;;;;;;12.33;4.90;;;;;;;11.93;56.18;99312.97;1716102;82;21294;-74
2022/05/04 05:23:31;;;;;;;13.35;5.17;;;;;;;12.01;56.11;99320.39;1717367;82;21055;-74
2022/05/04 05:25:57;;;;;;;12.50;4.65;;;;;;;12.05;55.94;99321.35;1717786;82;21005;-75
2022/05/04 05:28:25;;;;;;;11.85;4.30;;;;;;;12.14;56.23;99329.61;1716637;82;21000;-74
2022/05/04 05:30:51;;;;;;;6.72;4.00;;;;;;;12.24;55.70;99325.64;1716940;82;21574;-74
2022/05/04 05:33:18;;;;;;;7.12;3.70;;;;;;;12.32;55.32;99323.16;1719521;82;21032;-71
2022/05/04 05:35:44;;;;;;;10.23;4.87;;;;;;;12.34;55.42;99323.05;1723194;81;21098;-74
2022/05/04 05:38:12;;;;;;;7.55;4.28;;;;;;;12.41;54.99;99331.61;1728721;82;21025;-72
2022/05/04 05:40:41;;;;;;;10.40;4.47;;;;;;;12.41;54.54;99327.47;1719281;82;21062;-73
2022/05/04 05:43:09;;;;;;;17.40;4.72;;;;;;;12.45;54.77;99325.41;1712779;83;21507;-75
2022/05/04 05:45:37;;;;;;;10.43;4.75;;;;;;;12.51;54.83;99335.09;1727178;82;21090;-72
2022/05/04 05:48:04;;;;;;;11.03;4.42;;;;;;;12.58;55.09;99341.46;1723193;82;21534;-73
2022/05/04 05:50:33;;;;;;;17.07;4.92;;;;;;;12.65;54.45;99335.64;1714016;82;21024;-71
2022/05/04 05:53:02;;;;;;;8.75;3.65;;;;;;;12.72;54.08;99339.23;1721385;82;21069;-71
2022/05/04 05:55:29;;;;;;;9.50;4.25;;;;;;;12.75;54.12;99345.47;1721944;82;21039;-73
2022/05/04 05:57:56;;;;;;;10.45;4.45;;;;;;;12.81;54.18;99352.17;1724159;82;21088;-72
2022/05/04 06:00:26;;;;;;;8.35;4.12;;;;;;;12.88;53.84;99346.91;1718463;82;21116;-73
2022/05/04 06:02:53;;;;;;;7.92;4.12;;;;;;;12.92;53.46;99349.77;1711354;82;21027;-74
2022/05/04 06:05:19;;;;;;;8.10;3.62;;;;;;;12.97;53.81;99355.91;1716516;81;22078;-74
2022/05/04 06:07:46;;;;;;;9.18;4.47;;;;;;;13.07;54.12;99347.76;1700414;82;21062;-73
2022/05/04 06:10:13;;;;;;;8.25;4.37;;;;;;;13.19;53.34;99344.78;1718389;82;21574;-73
2022/05/04 06:12:41;;;;;;;12.78;4.15;;;;;;;13.27;53.46;99340.54;1711042;81;21018;-73
2022/05/04 06:15:10;;;;;;;11.78;4.75;;;;;;;13.38;53.38;99350.60;1718188;82;21498;-73
2022/05/04 06:17:37;;;;;;;10.55;4.85;;;;;;;13.50;53.36;99354.53;1716961;82;20996;-72
2022/05/04 06:20:07;;;;;;;10.82;5.20;;;;;;;13.62;52.77;99354.58;1719475;82;21090;-73
2022/05/04 06:22:35;;;;;;;14.90;5.25;;;;;;;13.72;52.29;99353.31;1719223;81;21568;-73
2022/05/04 06:25:01;;;;;;;16.30;5.90;;;;;;;13.80;51.77;99350.78;1717969;82;21227;-71
2022/05/04 06:27:32;;;;;;;18.20;5.70;;;;;;;13.85;49.99;99356.88;1718705;82;21000;-73
2022/05/04 06:35:33;;;;;;;12.07;5.75;;;;;;;13.83;49.07;99350.91;1700571;82;21152;-73
2022/05/04 06:37:59;;;;;;;14.50;5.37;;;;;;;13.87;49.88;99349.05;1717662;82;21127;-75
2022/05/04 06:40:26;;;;;;;19.30;6.37;;;;;;;13.98;50.24;99346.63;1723603;82;21036;-74
2022/05/04 06:42:52;;;;;;;14.07;6.37;;;;;;;14.07;49.09;99349.84;1720799;82;21056;-72
2022/05/04 06:45:18;;;;;;;15.65;5.45;;;;;;;14.12;49.73;99353.16;1714878;82;21047;-73
2022/05/04 06:47:46;;;;;;;10.20;4.92;;;;;;;14.18;48.10;99355.70;1717118;82;21077;-73
2022/05/04 06:50:14;;;;;;;12.28;4.53;;;;;;;14.21;48.53;99357.80;1713592;83;21014;-73
2022/05/04 06:52:44;;;;;;;14.20;4.70;;;;;;;14.23;48.74;99363.20;1718947;82;20999;-71
2022/05/04 06:55:12;;;;;;;15.32;4.90;;;;;;;14.32;47.41;99363.65;1714948;82;21041;-71
2022/05/04 06:57:40;;;;;;;10.45;4.00;;;;;;;14.34;48.01;99365.50;1713164;83;20999;-70
2022/05/04 07:00:07;;;;;;;12.37;3.30;;;;;;;14.38;47.87;99371.16;1714566;82;22103;-71
2022/05/04 07:02:34;;;;;;;8.25;2.75;;;;;;;14.38;47.33;99369.17;1714321;82;21756;-72
2022/05/04 07:05:10;;;;;;;6.22;2.62;;;;;;;14.34;47.77;99370.47;1713415;82;21472;-72
2022/05/04 07:08:31;;;;;;;7.22;3.20;;;;;;;14.41;48.27;99370.45;1684274;83;21186;-74
2022/05/04 07:28:08;;;;;;;6.35;2.20;;;;;;;14.81;46.79;99389.64;1652318;85;21571;-73
2022/05/04 07:30:36;;;;;;;14.03;2.83;;;;;;;14.83;46.49;99397.86;1687589;84;21560;-72
2022/05/04 07:33:05;;;;;;;7.42;2.92;;;;;;;14.87;46.46;99399.92;1694711;84;21079;-74
2022/05/04 07:35:31;;;;;;;3.72;2.35;;;;;;;14.91;47.08;99386.98;1697590;83;21026;-73
2022/05/04 07:37:59;;;;;;;3.80;1.90;;;;;;;15.02;45.98;99402.52;1690093;82;21599;-74
2022/05/04 07:44:45;;;;;;;2.25;1.55;;;;;;;15.09;44.64;99399.95;1716948;82;21126;-71
2022/05/04 07:51:44;;;;;;;4.80;1.95;;;;;;;15.34;44.49;99403.98;1710190;83;21058;-74
2022/05/04 07:54:12;;;;;;;8.35;1.98;;;;;;;15.43;44.61;99410.76;1676119;83;21458;-72
2022/05/04 07:56:42;;;;;;;7.58;2.47;;;;;;;15.53;44.70;99406.64;1712439;83;21031;-74
2022/05/04 07:59:08;;;;;;;6.25;2.22;;;;;;;15.60;43.91;99417.13;1711282;83;21034;-73
2022/05/04 08:04:21;;;;;;;4.83;2.00;;;;;;;15.52;44.52;99412.80;1714679;82;21410;-72
2022/05/04 08:06:48;;;;;;;10.25;2.02;;;;;;;15.62;44.67;99420.37;1709952;83;21036;-72
2022/05/04 08:09:15;;;;;;;3.45;2.05;;;;;;;15.70;43.64;99419.38;1713999;82;21082;-75
2022/05/04 08:11:41;;;;;;;9.15;1.80;;;;;;;15.77;44.06;99415.98;1711034;81;21043;-75
2022/05/04 08:14:08;;;;;;;6.75;2.17;;;;;;;15.88;42.79;99423.98;1708307;82;21171;-73
2022/05/04 08:16:36;;;;;;;5.53;2.12;;;;;;;15.88;43.01;99418.44;1711725;82;21031;-75
2022/05/04 08:19:07;;;;;;;5.85;2.27;;;;;;;15.98;43.94;99415.72;1711227;81;21495;-76
2022/05/04 08:21:34;;;;;;;5.72;1.77;;;;;;;16.14;44.41;99424.63;1711128;82;22091;-72
2022/05/04 08:24:01;;;;;;;9.58;1.55;;;;;;;16.26;44.17;99417.59;1712791;81;21063;-73
2022/05/04 08:26:28;;;;;;;4.47;1.77;;;;;;;16.36;41.86;99424.55;1711233;83;21313;-73
2022/05/04 08:28:56;;;;;;;5.90;1.60;;;;;;;16.44;41.60;99425.55;1707798;82;21016;-74
2022/05/04 08:31:27;;;;;;;6.35;1.57;;;;;;;16.53;41.84;99427.52;1706444;83;21020;-74
2022/05/04 08:33:54;;;;;;;4.53;1.55;;;;;;;16.71;42.02;99435.47;1708174;82;21119;-74
2022/05/04 08:36:21;;;;;;;4.17;1.15;;;;;;;16.86;40.28;99427.41;1705774;82;21571;-74
2022/05/04 08:38:47;;;;;;;11.50;1.85;;;;;;;16.77;39.63;99438.17;1701862;83;21315;-73
2022/05/04 08:41:15;;;;;;;3.77;1.32;;;;;;;16.40;38.81;99444.92;1710074;83;20968;-72
2022/05/04 08:43:43;;;;;;;5.45;1.55;;;;;;;16.03;39.87;99443.27;1709148;82;21098;-74
2022/05/04 08:46:14;;;;;;;5.53;1.42;;;;;;;15.78;40.29;99444.00;1709941;83;21004;-74
2022/05/04 08:48:43;;;;;;;;;;;;;;;15.60;40.69;99444.91;1713837;82;21550;-73
2022/05/04 08:51:10;;;;;;;4.10;1.60;;;;;;;15.47;41.15;99452.50;1712467;82;21108;-71
2022/05/04 08:53:40;;;;;;;4.17;1.77;;;;;;;15.31;41.71;99448.53;1711111;83;21043;-73
2022/05/04 08:56:19;;;;;;;4.87;2.30;;;;;;;15.35;42.67;99449.20;1704620;82;21488;-72
2022/05/04 08:58:53;;;;;;;7.22;3.45;;;;;;;15.40;41.87;99448.95;1710331;83;21603;-72
2022/05/04 09:01:19;;;;;;;7.58;2.40;;;;;;;15.40;42.43;99447.56;1711779;82;21043;-71
2022/05/04 09:03:47;;;;;;;6.22;2.45;;;;;;;15.46;42.76;99454.46;1708464;83;21478;-72
2022/05/04 09:06:29;;;;;;;9.53;3.17;;;;;;;15.42;41.70;99453.58;1710534;83;21059;-73
2022/05/04 09:09:08;;;;;;;7.87;2.50;;;;;;;15.32;41.85;99445.16;1709043;83;21000;-71
2022/05/04 09:11:43;;;;;;;3.65;1.85;;;;;;;15.32;42.61;99447.36;1709483;83;21075;-71
2022/05/04 09:14:27;;;;;;;4.67;2.30;;;;;;;15.35;42.76;99445.05;1708921;83;20991;-72
2022/05/04 09:16:53;;;;;;;5.25;2.50;;;;;;;15.46;43.29;99451.69;1710082;81;21097;-73
2022/05/04 09:19:25;;;;;;;8.03;3.12;;;;;;;15.54;42.23;99455.48;1711936;83;21071;-73
2022/05/04 09:21:55;;;;;;;9.03;2.62;;;;;;;15.48;41.78;99456.31;1707579;83;21496;-74
2022/05/04 09:24:30;;;;;;;9.75;3.60;;;;;;;15.41;40.84;99449.98;1712276;83;21000;-70
2022/05/04 09:26:57;;;;;;;14.75;3.52;;;;;;;15.35;41.72;99447.81;1711220;82;20976;-72
2022/05/04 09:29:36;;;;;;;6.12;2.80;;;;;;;15.35;40.92;99448.63;1717595;83;21652;-73
2022/05/04 09:32:22;;;;;;;5.87;2.45;;;;;;;15.40;41.52;99451.16;1717893;82;21031;-73
2022/05/04 10:32:26;;;;;;;9.63;1.42;;;;;;;16.07;39.93;99464.17;1699245;82;20996;-74
2022/05/04 10:35:42;;;;;;;6.28;1.98;;;;;;;16.02;38.61;99468.03;1695483;84;21048;-72
2022/05/04 10:38:12;;;;;;;7.08;1.62;;;;;;;15.94;39.62;99464.25;1697655;84;21481;-74
2022/05/04 10:40:50;;;;;;;4.20;1.60;;;;;;;15.90;39.80;99463.34;1700787;84;21032;-75
2022/05/04 10:43:20;;;;;;;32.10;4.60;;;;;;;15.99;39.74;99465.98;1707610;83;21040;-72
2022/05/04 10:45:50;;;;;;;2.75;1.17;;;;;;;16.11;39.48;99470.64;1708156;83;21471;-73
2022/05/04 10:48:23;;;;;;;5.20;1.27;;;;;;;16.07;37.24;99464.17;1711549;83;21499;-74
2022/05/04 10:50:55;;;;;;;11.18;2.17;;;;;;;15.97;38.39;99454.38;1708482;83;21329;-73
2022/05/04 10:53:31;;;;;;;7.22;1.60;;;;;;;16.11;38.98;99458.70;1710733;83;21547;-74
2022/05/04 10:56:09;;;;;;;5.05;1.40;;;;;;;16.21;38.59;99458.16;1712047;82;21055;-72
2022/05/04 10:59:07;;;;;;;5.90;2.27;;;;;;;16.24;36.83;99458.04;1709379;83;21195;-75
2022/05/04 11:43:05;;;;;;;8.23;1.87;;;;;;;17.12;37.62;99449.64;1705566;82;21070;-73
2022/05/04 11:45:34;;;;;;;4.65;1.55;;;;;;;17.18;34.55;99438.42;1715060;83;21468;-75
2022/05/04 11:48:03;;;;;;;8.58;1.90;;;;;;;16.97;34.45;99447.13;1717311;83;21007;-74
2022/05/04 11:50:30;;;;;;;10.05;1.92;;;;;;;16.78;34.26;99450.93;1706886;83;21245;-73
2022/05/04 11:52:56;;;;;;;5.20;1.80;;;;;;;16.78;35.42;99447.33;1717079;81;20999;-75
2022/05/04 11:55:24;;;;;;;6.20;1.35;;;;;;;17.00;35.08;99439.43;1719881;82;21000;-74
2022/05/04 11:57:51;;;;;;;6.30;1.40;;;;;;;17.22;34.86;99437.11;1674557;83;21114;-72
2022/05/04 12:00:23;;;;;;;11.10;1.85;;;;;;;17.41;34.24;99441.86;1714931;83;20976;-73
2022/05/04 12:06:55;;;;;;;7.40;2.08;;;;;;;17.08;33.61;99448.72;1670812;85;21599;-70
2022/05/04 12:09:21;;;;;;;5.58;2.02;;;;;;;16.74;34.34;99452.81;1711126;83;21046;-69
2022/05/04 12:11:50;;;;;;;6.58;1.65;;;;;;;16.50;34.20;99451.89;1721368;81;21547;-71
2022/05/04 12:14:18;;;;;;;13.93;1.95;;;;;;;16.42;34.66;99447.33;1714200;83;21078;-70
2022/05/04 12:16:53;;;;;;;4.78;1.20;;;;;;;16.34;34.01;99449.73;1713272;82;21071;-71
2022/05/04 12:19:24;;;;;;;7.15;1.67;;;;;;;16.42;34.92;99443.98;1704457;83;21078;-71
2022/05/04 12:21:54;;;;;;;2.92;1.50;;;;;;;16.71;35.21;99436.04;1716294;82;21040;-71
2022/05/04 12:24:24;;;;;;;4.55;1.85;;;;;;;17.10;35.31;99433.89;1718337;81;21086;-72
2022/05/04 12:26:55;;;;;;;5.42;2.20;;;;;;;17.39;34.46;99437.23;1715185;83;21050;-71
2022/05/04 12:34:57;;;;;;;7.17;2.12;;;;;;;17.70;33.20;99438.78;1696805;83;21046;-72
2022/05/04 12:37:32;;;;;;;11.10;2.27;;;;;;;17.89;34.32;99439.31;1708762;82;21055;-70
2022/05/04 12:40:05;;;;;;;4.28;1.75;;;;;;;18.10;33.43;99447.22;1717387;83;21129;-72
2022/05/04 12:42:33;;;;;;;5.28;1.20;;;;;;;18.12;33.04;99435.69;1717082;82;21591;-72
2022/05/04 12:45:00;;;;;;;9.25;1.72;;;;;;;18.17;32.12;99449.95;1712693;82;21051;-72
2022/05/04 12:47:27;;;;;;;2.12;1.02;;;;;;;18.20;32.75;99440.84;1713906;82;21028;-74
2022/05/04 12:49:53;;;;;;;5.70;1.22;;;;;;;18.12;32.31;99442.08;1695328;83;21140;-74
2022/05/04 12:52:20;;;;;;;3.20;1.27;;;;;;;18.07;31.98;99439.61;1725117;81;21588;-73
2022/05/04 12:54:47;;;;;;;3.65;1.57;;;;;;;18.11;32.57;99436.87;1692568;82;21459;-73
2022/05/04 12:57:17;;;;;;;1.62;1.12;;;;;;;18.22;32.58;99435.09;1718811;81;21048;-75
2022/05/04 12:59:43;;;;;;;5.17;1.02;;;;;;;18.36;31.77;99431.72;1716925;81;22171;-72
2022/05/04 13:02:11;;;;;;;7.47;1.22;;;;;;;18.48;31.12;99437.67;1711549;82;21073;-73
2022/05/04 13:04:37;;;;;;;3.25;1.50;;;;;;;18.46;29.88;99443.39;1722864;82;21047;-72
2022/05/04 13:07:05;;;;;;;2.70;1.20;;;;;;;18.29;29.96;99440.58;1717505;82;21051;-73
2022/05/04 13:09:32;;;;;;;8.53;1.30;;;;;;;18.16;30.35;99431.59;1718155;82;21512;-73
2022/05/04 13:12:30;;;;;;;8.68;1.85;;;;;;;18.17;31.11;99437.41;1724825;82;21097;-73
2022/05/04 13:15:21;;;;;;;9.20;1.60;;;;;;;18.36;31.03;99438.69;1715291;82;21549;-72
2022/05/04 13:17:50;;;;;;;3.95;0.88;;;;;;;18.46;30.91;99437.23;1722519;82;21028;-74
2022/05/04 13:20:20;;;;;;;2.90;1.37;;;;;;;18.49;30.67;99439.27;1713363;81;21068;-74
2022/05/04 13:22:47;;;;;;;2.58;1.62;;;;;;;18.49;30.27;99439.88;1705841;83;21107;-72
2022/05/04 13:25:26;;;;;;;7.00;1.92;;;;;;;18.28;30.42;99441.73;1711850;81;21504;-76
2022/05/04 13:27:56;;;;;;;6.33;2.50;;;;;;;18.07;31.05;99441.00;1705225;82;21000;-74
2022/05/04 13:30:27;;;;;;;6.20;2.12;;;;;;;18.00;31.30;99443.08;1710283;82;21075;-74
2022/05/04 13:32:54;;;;;;;97.70;8.60;;;;;;;17.74;31.61;99450.20;1704315;82;22190;-72
2022/05/04 13:35:22;;;;;;;13.90;3.85;;;;;;;17.52;32.85;99445.64;1712228;82;21078;-73
2022/05/04 13:37:49;;;;;;;6.87;3.83;;;;;;;17.52;32.81;99447.03;1704357;82;21065;-71
2022/05/04 13:40:16;;;;;;;6.78;2.70;;;;;;;17.52;32.63;99458.17;1706926;82;21492;-72
2022/05/04 13:42:42;;;;;;;7.70;3.40;;;;;;;17.40;32.42;99453.57;1734380;82;21006;-71
2022/05/04 13:45:10;;;;;;;10.10;2.90;;;;;;;17.32;32.78;99446.26;1700236;82;21083;-72
2022/05/04 13:47:39;;;;;;;5.67;2.17;;;;;;;17.37;33.14;99443.75;1691087;83;21568;-72
2022/05/04 13:55:24;;;;;;;3.30;1.02;;;;;;;17.39;31.12;99455.33;1673429;82;21027;-72
2022/05/04 13:58:09;;;;;;;2.98;0.90;;;;;;;17.41;30.52;99446.03;1718202;82;21017;-74
2022/05/04 14:00:49;;;;;;;1.77;1.07;;;;;;;17.38;31.02;99446.16;1690145;82;21572;-73
2022/05/04 14:03:16;;;;;;;7.55;2.52;;;;;;;17.52;31.71;99453.99;1710798;82;21461;-74
2022/05/04 14:05:44;;;;;;;9.45;2.85;;;;;;;17.69;32.26;99451.89;1710184;82;21068;-72
2022/05/04 14:08:22;;;;;;;12.33;2.40;;;;;;;17.85;31.62;99456.55;1707310;82;21578;-70
2022/05/04 14:10:57;;;;;;;4.70;2.05;;;;;;;17.92;31.66;99461.44;1686761;82;21247;-70
2022/05/04 14:13:28;;;;;;;6.72;3.08;;;;;;;17.97;32.07;99461.95;1667551;83;21198;-70
2022/05/04 14:16:03;;;;;;;7.17;2.42;;;;;;;17.91;30.55;99469.59;1686450;83;21107;-70
2022/05/04 14:18:31;;;;;;;8.83;3.70;;;;;;;17.71;31.01;99464.88;1693768;83;20970;-71
2022/05/04 14:21:02;;;;;;;7.37;3.22;;;;;;;17.59;31.01;99474.20;1697051;84;21643;-72
2022/05/04 14:23:31;;;;;;;9.33;3.10;;;;;;;17.47;31.55;99469.61;1689746;83;21803;-71
2022/05/04 14:26:00;;;;;;;4.08;2.83;;;;;;;17.42;31.74;99465.73;1702127;82;21092;-70
2022/05/04 14:28:36;;;;;;;11.18;2.83;;;;;;;17.43;31.59;99471.54;1706757;82;20982;-71
2022/05/04 14:31:06;;;;;;;5.67;2.42;;;;;;;17.40;31.64;99474.45;1720253;81;21041;-73
2022/05/04 14:33:32;;;;;;;9.65;2.67;;;;;;;17.35;30.87;99471.19;1711331;82;21018;-73
2022/05/04 14:36:00;;;;;;;10.00;2.27;;;;;;;17.10;30.18;99478.42;1711891;82;21136;-70
2022/05/04 14:38:31;;;;;;;32.17;3.77;;;;;;;16.83;30.49;99479.04;1708237;82;20950;-71
2022/05/04 14:40:58;;;;;;;3.45;1.50;;;;;;;16.78;30.83;99475.97;1716349;82;21446;-75
2022/05/04 14:43:25;;;;;;;3.00;1.42;;;;;;;16.78;30.11;99474.58;1721628;82;21081;-70
2022/05/04 14:45:53;;;;;;;4.15;1.60;;;;;;;16.80;30.54;99478.38;1711877;82;21042;-70
2022/05/04 14:48:21;;;;;;;2.62;1.45;;;;;;;16.86;30.73;99482.48;1717031;82;21111;-71
2022/05/04 14:54:14;;;;;;;3.35;2.05;;;;;;;16.95;29.99;99483.66;1659964;85;21564;-74
2022/05/04 14:56:44;;;;;;;12.63;2.40;;;;;;;16.99;29.11;99486.53;1671776;85;21061;-73
2022/05/04 14:59:10;;;;;;;3.90;1.45;;;;;;;16.96;28.34;99485.27;1678576;84;21023;-70
2022/05/04 15:01:38;;;;;;;5.45;2.10;;;;;;;16.96;28.69;99488.63;1715980;82;21106;-73
2022/05/04 15:06:52;;;;;;;5.60;2.42;;;;;;;16.84;27.54;99489.59;1706280;82;21062;-74
2022/05/04 15:09:22;;;;;;;10.45;2.33;;;;;;;16.72;26.72;99494.09;1714719;82;21015;-71
2022/05/04 15:11:52;;;;;;;5.53;2.15;;;;;;;16.66;27.35;99494.16;1671829;85;21031;-69
2022/05/04 15:14:20;;;;;;;8.70;2.58;;;;;;;16.64;26.48;99504.26;1675572;85;21583;-71
2022/05/04 15:16:48;;;;;;;13.00;2.55;;;;;;;16.60;25.28;99503.96;1696113;83;21138;-74
2022/05/04 15:19:47;;;;;;;8.85;2.77;;;;;;;16.53;24.44;99505.98;1593474;89;21142;-73
2022/05/04 15:22:20;;;;;;;7.87;3.05;;;;;;;16.43;24.08;99508.72;1635868;86;21069;-73
2022/05/04 15:24:47;;;;;;;5.28;2.35;;;;;;;16.36;24.46;99504.39;1689438;83;21021;-73
2022/05/04 15:27:15;;;;;;;10.55;3.60;;;;;;;16.33;24.61;99506.48;1649895;85;21119;-75
2022/05/04 15:29:44;;;;;;;10.55;3.87;;;;;;;16.35;24.90;99511.92;1652550;85;21009;-74
2022/05/04 15:32:15;;;;;;;7.17;4.00;;;;;;;16.38;24.30;99516.75;1646385;85;20994;-73
2022/05/04 15:34:44;;;;;;;5.53;3.75;;;;;;;16.37;24.20;99516.54;1695150;83;21030;-73
2022/05/04 15:37:11;;;;;;;6.40;3.50;;;;;;;16.34;24.05;99513.67;1686782;83;21097;-73
2022/05/04 15:39:41;;;;;;;7.03;3.50;;;;;;;16.27;24.04;99516.51;1666899;85;21117;-71
2022/05/04 15:42:08;;;;;;;7.15;3.67;;;;;;;16.23;24.49;99523.12;1662565;85;21135;-74
2022/05/04 15:44:39;;;;;;;24.82;4.55;;;;;;;16.18;24.13;99525.59;1635048;85;21060;-72
2022/05/04 15:47:05;;;;;;;7.05;3.42;;;;;;;16.16;23.69;99532.09;1682428;83;21105;-73
2022/05/04 15:49:35;;;;;;;5.35;3.37;;;;;;;16.11;23.86;99528.18;1696280;84;21476;-73
2022/05/04 15:52:05;;;;;;;19.25;3.65;;;;;;;16.12;24.02;99533.38;1671840;84;21842;-73
2022/05/04 15:54:36;;;;;;;5.72;2.98;;;;;;;16.27;23.83;99537.35;1689411;84;21034;-74
2022/05/04 15:57:03;;;;;;;36.40;5.53;;;;;;;16.55;23.29;99540.59;1692861;84;21112;-74
2022/05/04 15:59:30;;;;;;;12.30;4.25;;;;;;;16.70;23.86;99545.09;1665955;83;21513;-75
2022/05/04 16:01:59;;;;;;;13.43;3.70;;;;;;;16.69;23.85;99542.68;1695562;83;21792;-73
2022/05/04 16:04:27;;;;;;;15.70;3.62;;;;;;;16.56;23.87;99549.76;1694763;83;21168;-71
2022/05/04 16:07:19;;;;;;;10.78;4.00;;;;;;;16.36;23.79;99551.05;1688527;83;21018;-71
2022/05/04 16:10:37;;;;;;;19.17;4.28;;;;;;;16.18;24.27;99549.22;1620287;87;21148;-72
2022/05/04 16:16:18;;;;;;;10.82;3.60;;;;;;;15.70;24.48;99561.02;1529069;93;21095;-69
2022/05/04 16:21:49;;;;;;;8.43;2.80;;;;;;;15.40;25.20;99563.58;1661084;83;21491;-72
2022/05/04 16:24:17;;;;;;;3.55;2.55;;;;;;;15.32;25.98;99575.04;1692595;83;21090;-72
2022/05/04 16:26:49;;;;;;;9.10;3.15;;;;;;;15.25;25.53;99581.76;1696252;83;21206;-72
2022/05/04 16:29:18;;;;;;;7.10;2.00;;;;;;;15.11;25.60;99589.66;1717051;82;21024;-69
2022/05/04 16:31:55;;;;;;;8.38;2.17;;;;;;;15.01;26.12;99580.64;1716563;82;21063;-71
2022/05/04 16:34:21;;;;;;;3.35;1.90;;;;;;;14.92;26.32;99582.75;1722278;82;21073;-72
2022/05/04 16:36:53;;;;;;;12.03;2.67;;;;;;;14.79;26.23;99599.36;1676346;84;21072;-69
2022/05/04 16:39:20;;;;;;;9.60;2.47;;;;;;;14.66;26.70;99590.80;1711848;83;42010;-71
2022/05/04 16:41:48;;;;;;;8.18;2.80;;;;;;;14.63;26.96;99601.20;1717459;82;21054;-71
2022/05/04 16:44:15;;;;;;;9.25;3.12;;;;;;;14.57;26.88;99597.84;1720898;82;21102;-70
2022/05/04 16:46:41;;;;;;;4.67;2.52;;;;;;;14.50;27.04;99605.34;1720829;82;21609;-73
2022/05/04 16:49:08;;;;;;;10.75;3.33;;;;;;;14.44;27.25;99609.51;1712941;82;21028;-72
2022/05/04 16:51:34;;;;;;;10.72;3.60;;;;;;;14.40;27.97;99608.59;1718269;82;20989;-74
2022/05/04 16:54:04;;;;;;;19.17;3.30;;;;;;;14.35;27.99;99617.92;1717766;82;20997;-72
2022/05/04 16:56:30;;;;;;;7.50;3.47;;;;;;;14.31;28.35;99618.39;1718202;82;21134;-72
2022/05/04 16:58:58;;;;;;;4.97;2.67;;;;;;;14.29;28.52;99626.23;1726123;82;21042;-70
2022/05/04 17:01:25;;;;;;;5.50;3.12;;;;;;;14.27;28.20;99634.06;1726454;82;21472;-72
2022/05/04 17:03:52;;;;;;;16.25;6.95;;;;;;;14.15;28.00;99639.00;1711757;83;21482;-74
2022/05/04 17:06:19;;;;;;;14.68;7.08;;;;;;;13.98;28.64;99642.18;1721214;82;22378;-74
2022/05/04 17:08:45;;;;;;;17.87;6.20;;;;;;;13.91;28.89;99644.68;1721962;82;21854;-71
2022/05/04 17:11:14;;;;;;;5.47;3.50;;;;;;;13.80;28.93;99645.69;1724069;82;21551;-72
2022/05/04 17:13:45;;;;;;;7.60;2.37;;;;;;;13.70;28.94;99651.06;1716433;82;21079;-71
2022/05/04 17:16:15;;;;;;;9.60;4.00;;;;;;;13.61;29.30;99655.28;1722654;82;21467;-73